sensor_id;sensor_type;location;lat;lon;timestamp;P1;P2;P0
57037;PMS5003;59942;49.304;8.256;2023-10-08T00:01:09;51.40;48.40;42.00
57037;PMS5003;59942;49.304;8.256;2023-10-08T00:03:44;59.20;51.00;43.00
57037;PMS5003;59942;49.304;8.256;2023-10-08T00:06:25;60.60;52.80;44.40
57037;PMS5003;59942;49.304;8.256;2023-10-08T00:08:52;58.00;52.00;45.00
57037;PMS5003;59942;49.304;8.256;2023-10-08T00:11:26;54.00;49.00;42.00
57037;PMS5003;59942;49.304;8.256;2023-10-08T00:13:55;54.00;49.00;42.00
57037;PMS5003;59942;49.304;8.256;2023-10-08T00:16:23;57.60;51.60;43.40
57037;PMS5003;59942;49.304;8.256;2023-10-08T00:18:50;59.40;52.00;43.00
57037;PMS5003;59942;49.304;8.256;2023-10-08T00:21:18;54.20;49.40;42.00
57037;PMS5003;59942;49.304;8.256;2023-10-08T00:23:46;60.40;52.00;43.00
57037;PMS5003;59942;49.304;8.256;2023-10-08T00:26:19;56.20;51.00;43.00
57037;PMS5003;59942;49.304;8.256;2023-10-08T00:28:57;57.40;52.00;43.80
57037;PMS5003;59942;49.304;8.256;2023-10-08T00:31:43;56.80;51.60;43.20
57037;PMS5003;59942;49.304;8.256;2023-10-08T00:34:18;57.00;52.00;43.00
57037;PMS5003;59942;49.304;8.256;2023-10-08T00:36:46;53.20;49.00;42.00
57037;PMS5003;59942;49.304;8.256;2023-10-08T00:39:14;55.00;51.00;43.00
57037;PMS5003;59942;49.304;8.256;2023-10-08T00:41:43;57.00;52.00;43.00
57037;PMS5003;59942;49.304;8.256;2023-10-08T00:44:11;56.40;51.60;43.00
57037;PMS5003;59942;49.304;8.256;2023-10-08T00:46:45;60.00;53.60;45.20
57037;PMS5003;59942;49.304;8.256;2023-10-08T00:49:19;55.60;50.60;43.00
57037;PMS5003;59942;49.304;8.256;2023-10-08T00:51:48;58.00;52.00;43.00
57037;PMS5003;59942;49.304;8.256;2023-10-08T00:54:35;56.20;49.80;42.20
57037;PMS5003;59942;49.304;8.256;2023-10-08T00:57:22;51.40;48.40;42.00
57037;PMS5003;59942;49.304;8.256;2023-10-08T00:59:51;57.60;51.80;43.00
57037;PMS5003;59942;49.304;8.256;2023-10-08T01:02:24;57.60;49.00;42.00
57037;PMS5003;59942;49.304;8.256;2023-10-08T01:05:09;54.60;49.00;42.00
57037;PMS5003;59942;49.304;8.256;2023-10-08T01:07:39;57.60;52.00;43.80
57037;PMS5003;59942;49.304;8.256;2023-10-08T01:10:10;54.00;49.00;42.00
57037;PMS5003;59942;49.304;8.256;2023-10-08T01:12:39;54.00;49.00;42.00
57037;PMS5003;59942;49.304;8.256;2023-10-08T01:15:26;52.80;48.80;42.00
57037;PMS5003;59942;49.304;8.256;2023-10-08T01:17:56;73.00;62.40;51.20
57037;PMS5003;59942;49.304;8.256;2023-10-08T01:20:27;58.20;51.60;43.20
57037;PMS5003;59942;49.304;8.256;2023-10-08T01:23:05;55.00;49.00;42.00
57037;PMS5003;59942;49.304;8.256;2023-10-08T01:25:43;56.40;50.40;42.60
57037;PMS5003;59942;49.304;8.256;2023-10-08T01:28:17;52.00;49.00;42.00
57037;PMS5003;59942;49.304;8.256;2023-10-08T01:30:53;69.20;59.20;49.00
57037;PMS5003;59942;49.304;8.256;2023-10-08T01:33:21;54.00;49.00;42.00
57037;PMS5003;59942;49.304;8.256;2023-10-08T01:35:48;58.40;51.20;43.00
57037;PMS5003;59942;49.304;8.256;2023-10-08T01:38:15;55.20;50.00;42.40
57037;PMS5003;59942;49.304;8.256;2023-10-08T01:40:43;51.60;48.60;42.00
57037;PMS5003;59942;49.304;8.256;2023-10-08T01:43:16;52.40;49.00;42.00
57037;PMS5003;59942;49.304;8.256;2023-10-08T01:45:44;59.60;51.40;43.00
57037;PMS5003;59942;49.304;8.256;2023-10-08T01:48:14;51.00;48.00;40.80
57037;PMS5003;59942;49.304;8.256;2023-10-08T01:50:46;53.20;48.20;42.00
57037;PMS5003;59942;49.304;8.256;2023-10-08T01:53:33;51.00;48.00;42.00
57037;PMS5003;59942;49.304;8.256;2023-10-08T01:56:00;53.00;48.40;42.00
57037;PMS5003;59942;49.304;8.256;2023-10-08T01:58:27;51.80;48.00;42.00
57037;PMS5003;59942;49.304;8.256;2023-10-08T02:00:54;54.80;50.00;42.20
57037;PMS5003;59942;49.304;8.256;2023-10-08T02:03:25;55.60;48.40;42.00
57037;PMS5003;59942;49.304;8.256;2023-10-08T02:05:54;55.80;49.00;42.00
57037;PMS5003;59942;49.304;8.256;2023-10-08T02:08:25;55.60;49.00;42.00
57037;PMS5003;59942;49.304;8.256;2023-10-08T02:10:52;58.00;51.00;43.00
57037;PMS5003;59942;49.304;8.256;2023-10-08T02:13:19;51.00;48.00;40.00
57037;PMS5003;59942;49.304;8.256;2023-10-08T02:15:48;55.40;51.00;43.00
57037;PMS5003;59942;49.304;8.256;2023-10-08T02:18:20;53.00;48.00;40.00
57037;PMS5003;59942;49.304;8.256;2023-10-08T02:20:50;58.00;49.40;42.20
57037;PMS5003;59942;49.304;8.256;2023-10-08T02:23:17;52.00;48.00;42.00
57037;PMS5003;59942;49.304;8.256;2023-10-08T02:25:44;51.80;48.40;42.00
57037;PMS5003;59942;49.304;8.256;2023-10-08T02:28:11;51.00;48.00;40.00
57037;PMS5003;59942;49.304;8.256;2023-10-08T02:30:42;56.20;51.60;43.00
57037;PMS5003;59942;49.304;8.256;2023-10-08T02:33:09;57.20;50.60;42.80
57037;PMS5003;59942;49.304;8.256;2023-10-08T02:35:43;53.60;48.00;40.00
57037;PMS5003;59942;49.304;8.256;2023-10-08T02:38:13;55.40;49.40;42.20
57037;PMS5003;59942;49.304;8.256;2023-10-08T02:40:44;52.00;48.00;42.00
57037;PMS5003;59942;49.304;8.256;2023-10-08T02:43:14;56.40;51.40;42.80
57037;PMS5003;59942;49.304;8.256;2023-10-08T02:45:44;57.00;51.40;43.00
57037;PMS5003;59942;49.304;8.256;2023-10-08T02:48:15;50.60;48.00;40.00
57037;PMS5003;59942;49.304;8.256;2023-10-08T02:50:43;49.00;48.00;40.00
57037;PMS5003;59942;49.304;8.256;2023-10-08T02:53:13;51.60;48.00;42.00
57037;PMS5003;59942;49.304;8.256;2023-10-08T02:55:47;56.00;50.80;42.60
57037;PMS5003;59942;49.304;8.256;2023-10-08T02:58:14;54.40;49.80;42.40
57037;PMS5003;59942;49.304;8.256;2023-10-08T03:00:42;53.00;49.00;42.00
57037;PMS5003;59942;49.304;8.256;2023-10-08T03:03:09;59.40;53.20;44.80
57037;PMS5003;59942;49.304;8.256;2023-10-08T03:05:45;51.60;48.20;42.00
57037;PMS5003;59942;49.304;8.256;2023-10-08T03:08:14;48.60;46.40;40.00
57037;PMS5003;59942;49.304;8.256;2023-10-08T03:10:48;51.00;48.00;42.00
57037;PMS5003;59942;49.304;8.256;2023-10-08T03:13:22;56.60;49.80;42.40
57037;PMS5003;59942;49.304;8.256;2023-10-08T03:15:49;57.00;51.00;43.00
57037;PMS5003;59942;49.304;8.256;2023-10-08T03:18:25;48.00;46.00;40.00
57037;PMS5003;59942;49.304;8.256;2023-10-08T03:20:51;53.40;48.40;42.00
57037;PMS5003;59942;49.304;8.256;2023-10-08T03:23:18;51.00;48.00;42.00
57037;PMS5003;59942;49.304;8.256;2023-10-08T03:26:01;49.80;48.00;40.80
57037;PMS5003;59942;49.304;8.256;2023-10-08T03:28:38;54.00;48.40;40.80
57037;PMS5003;59942;49.304;8.256;2023-10-08T03:31:07;51.60;48.00;40.00
57037;PMS5003;59942;49.304;8.256;2023-10-08T03:33:42;51.80;48.80;42.00
57037;PMS5003;59942;49.304;8.256;2023-10-08T03:36:15;54.00;49.00;42.00
57037;PMS5003;59942;49.304;8.256;2023-10-08T03:38:48;56.40;50.00;42.40
57037;PMS5003;59942;49.304;8.256;2023-10-08T03:41:22;53.60;48.60;42.00
57037;PMS5003;59942;49.304;8.256;2023-10-08T03:43:55;49.00;48.00;40.00
57037;PMS5003;59942;49.304;8.256;2023-10-08T03:46:31;56.00;49.00;42.20
57037;PMS5003;59942;49.304;8.256;2023-10-08T03:49:05;54.60;50.20;42.40
57037;PMS5003;59942;49.304;8.256;2023-10-08T03:51:52;49.00;48.00;40.00
57037;PMS5003;59942;49.304;8.256;2023-10-08T03:54:19;39.20;39.00;34.00
57037;PMS5003;59942;49.304;8.256;2023-10-08T03:56:56;49.00;48.00;40.00
57037;PMS5003;59942;49.304;8.256;2023-10-08T03:59:24;57.00;49.80;42.40
57037;PMS5003;59942;49.304;8.256;2023-10-08T04:01:58;51.00;48.00;40.00
57037;PMS5003;59942;49.304;8.256;2023-10-08T04:04:36;48.60;46.80;40.00
57037;PMS5003;59942;49.304;8.256;2023-10-08T04:07:20;50.80;48.00;40.00
57037;PMS5003;59942;49.304;8.256;2023-10-08T04:10:00;51.00;48.00;41.60
57037;PMS5003;59942;49.304;8.256;2023-10-08T04:12:37;51.80;48.40;42.00
57037;PMS5003;59942;49.304;8.256;2023-10-08T04:15:10;52.60;48.20;42.00
57037;PMS5003;59942;49.304;8.256;2023-10-08T04:17:38;52.00;49.00;42.00
57037;PMS5003;59942;49.304;8.256;2023-10-08T04:20:12;50.40;46.00;40.00
57037;PMS5003;59942;49.304;8.256;2023-10-08T04:23:00;50.60;46.40;40.00
57037;PMS5003;59942;49.304;8.256;2023-10-08T04:25:30;49.00;45.60;39.60
57037;PMS5003;59942;49.304;8.256;2023-10-08T04:27:58;49.40;46.40;39.80
57037;PMS5003;59942;49.304;8.256;2023-10-08T04:33:05;52.80;48.40;42.00
57037;PMS5003;59942;49.304;8.256;2023-10-08T04:35:40;50.20;47.60;40.40
57037;PMS5003;59942;49.304;8.256;2023-10-08T04:38:19;57.40;51.00;43.20
57037;PMS5003;59942;49.304;8.256;2023-10-08T04:40:50;51.20;48.00;42.00
57037;PMS5003;59942;49.304;8.256;2023-10-08T04:43:20;49.40;45.00;39.00
57037;PMS5003;59942;49.304;8.256;2023-10-08T04:45:57;49.40;46.40;40.00
57037;PMS5003;59942;49.304;8.256;2023-10-08T04:48:25;55.80;51.40;42.80
57037;PMS5003;59942;49.304;8.256;2023-10-08T04:50:58;55.00;49.00;42.00
57037;PMS5003;59942;49.304;8.256;2023-10-08T04:53:26;55.00;51.00;43.00
57037;PMS5003;59942;49.304;8.256;2023-10-08T04:56:04;54.00;49.00;42.00
57037;PMS5003;59942;49.304;8.256;2023-10-08T04:58:33;48.00;46.00;40.00
57037;PMS5003;59942;49.304;8.256;2023-10-08T05:01:03;48.60;46.00;40.00
57037;PMS5003;59942;49.304;8.256;2023-10-08T05:03:50;51.40;48.00;40.80
57037;PMS5003;59942;49.304;8.256;2023-10-08T05:06:25;49.40;48.00;40.00
57037;PMS5003;59942;49.304;8.256;2023-10-08T05:09:06;47.60;45.80;39.80
57037;PMS5003;59942;49.304;8.256;2023-10-08T05:11:50;48.00;46.00;39.40
57037;PMS5003;59942;49.304;8.256;2023-10-08T05:14:19;52.00;49.00;42.00
57037;PMS5003;59942;49.304;8.256;2023-10-08T05:17:02;51.00;48.00;42.00
57037;PMS5003;59942;49.304;8.256;2023-10-08T05:19:46;55.60;50.00;42.40
57037;PMS5003;59942;49.304;8.256;2023-10-08T05:22:33;74.20;63.60;51.80
57037;PMS5003;59942;49.304;8.256;2023-10-08T05:25:00;48.00;46.00;40.00
57037;PMS5003;59942;49.304;8.256;2023-10-08T05:27:44;50.60;47.60;40.00
57037;PMS5003;59942;49.304;8.256;2023-10-08T05:30:18;55.20;50.80;43.40
57037;PMS5003;59942;49.304;8.256;2023-10-08T05:33:05;53.20;48.00;41.60
57037;PMS5003;59942;49.304;8.256;2023-10-08T05:35:35;46.00;45.00;39.00
57037;PMS5003;59942;49.304;8.256;2023-10-08T05:38:09;48.00;45.00;39.00
57037;PMS5003;59942;49.304;8.256;2023-10-08T05:40:57;49.60;47.40;40.80
57037;PMS5003;59942;49.304;8.256;2023-10-08T05:43:34;54.00;48.40;41.20
57037;PMS5003;59942;49.304;8.256;2023-10-08T05:46:08;48.00;46.60;39.80
57037;PMS5003;59942;49.304;8.256;2023-10-08T05:48:52;74.60;61.80;51.00
57037;PMS5003;59942;49.304;8.256;2023-10-08T05:51:36;47.20;45.60;39.20
57037;PMS5003;59942;49.304;8.256;2023-10-08T05:54:25;50.60;48.40;40.80
57037;PMS5003;59942;49.304;8.256;2023-10-08T05:56:52;54.40;49.00;42.00
57037;PMS5003;59942;49.304;8.256;2023-10-08T05:59:38;51.00;48.00;42.00
57037;PMS5003;59942;49.304;8.256;2023-10-08T06:02:34;50.60;46.00;39.60
57037;PMS5003;59942;49.304;8.256;2023-10-08T06:05:04;56.40;48.60;42.00
57037;PMS5003;59942;49.304;8.256;2023-10-08T06:07:51;46.60;45.00;39.00
57037;PMS5003;59942;49.304;8.256;2023-10-08T06:10:23;55.00;49.00;41.40
57037;PMS5003;59942;49.304;8.256;2023-10-08T06:12:58;52.00;48.80;42.00
57037;PMS5003;59942;49.304;8.256;2023-10-08T06:15:36;49.00;48.00;40.00
57037;PMS5003;59942;49.304;8.256;2023-10-08T06:18:25;49.40;48.00;40.40
57037;PMS5003;59942;49.304;8.256;2023-10-08T06:20:55;51.20;48.00;40.00
57037;PMS5003;59942;49.304;8.256;2023-10-08T06:23:29;56.00;49.40;42.20
57037;PMS5003;59942;49.304;8.256;2023-10-08T06:25:59;54.00;48.80;42.00
57037;PMS5003;59942;49.304;8.256;2023-10-08T06:28:41;48.00;46.00;40.00
57037;PMS5003;59942;49.304;8.256;2023-10-08T06:31:10;46.00;45.00;39.00
57037;PMS5003;59942;49.304;8.256;2023-10-08T06:33:43;55.80;50.00;42.80
57037;PMS5003;59942;49.304;8.256;2023-10-08T06:36:11;51.00;48.00;40.00
57037;PMS5003;59942;49.304;8.256;2023-10-08T06:38:47;52.80;48.20;41.20
57037;PMS5003;59942;49.304;8.256;2023-10-08T06:41:16;48.60;47.20;40.00
57037;PMS5003;59942;49.304;8.256;2023-10-08T06:44:06;53.20;49.00;42.00
57037;PMS5003;59942;49.304;8.256;2023-10-08T06:46:33;53.20;48.00;40.80
57037;PMS5003;59942;49.304;8.256;2023-10-08T06:49:02;49.60;48.00;40.40
57037;PMS5003;59942;49.304;8.256;2023-10-08T06:51:35;49.40;45.00;39.00
57037;PMS5003;59942;49.304;8.256;2023-10-08T06:54:02;49.00;48.00;40.00
57037;PMS5003;59942;49.304;8.256;2023-10-08T06:56:30;52.80;48.00;40.80
57037;PMS5003;59942;49.304;8.256;2023-10-08T06:58:57;48.20;46.40;40.00
57037;PMS5003;59942;49.304;8.256;2023-10-08T07:01:25;54.00;50.00;42.40
57037;PMS5003;59942;49.304;8.256;2023-10-08T07:03:55;52.00;48.00;42.00
57037;PMS5003;59942;49.304;8.256;2023-10-08T07:06:30;49.60;48.00;40.00
57037;PMS5003;59942;49.304;8.256;2023-10-08T07:09:03;58.20;48.00;40.00
57037;PMS5003;59942;49.304;8.256;2023-10-08T07:11:40;49.00;48.00;40.00
57037;PMS5003;59942;49.304;8.256;2023-10-08T07:14:10;54.00;49.00;42.00
57037;PMS5003;59942;49.304;8.256;2023-10-08T07:16:37;51.00;48.00;40.00
57037;PMS5003;59942;49.304;8.256;2023-10-08T07:19:07;57.60;51.60;43.80
57037;PMS5003;59942;49.304;8.256;2023-10-08T07:21:44;49.00;48.00;40.00
57037;PMS5003;59942;49.304;8.256;2023-10-08T07:24:15;51.80;48.00;40.80
57037;PMS5003;59942;49.304;8.256;2023-10-08T07:26:44;56.00;49.80;42.00
57037;PMS5003;59942;49.304;8.256;2023-10-08T07:29:13;57.60;51.00;43.00
57037;PMS5003;59942;49.304;8.256;2023-10-08T07:31:44;54.80;49.00;42.00
57037;PMS5003;59942;49.304;8.256;2023-10-08T07:34:20;55.00;51.00;42.80
57037;PMS5003;59942;49.304;8.256;2023-10-08T07:36:50;51.00;48.00;42.00
57037;PMS5003;59942;49.304;8.256;2023-10-08T07:39:18;58.60;49.00;42.00
57037;PMS5003;59942;49.304;8.256;2023-10-08T07:41:53;60.80;53.60;45.00
57037;PMS5003;59942;49.304;8.256;2023-10-08T07:44:21;52.00;49.00;42.00
57037;PMS5003;59942;49.304;8.256;2023-10-08T07:46:48;56.60;51.80;43.00
57037;PMS5003;59942;49.304;8.256;2023-10-08T07:49:16;54.00;49.00;42.00
57037;PMS5003;59942;49.304;8.256;2023-10-08T07:51:43;54.40;49.40;42.00
57037;PMS5003;59942;49.304;8.256;2023-10-08T07:54:20;55.00;49.00;42.00
57037;PMS5003;59942;49.304;8.256;2023-10-08T07:56:49;56.60;49.00;42.00
57037;PMS5003;59942;49.304;8.256;2023-10-08T07:59:18;56.40;51.60;43.00
57037;PMS5003;59942;49.304;8.256;2023-10-08T08:01:44;69.60;57.40;46.00
57037;PMS5003;59942;49.304;8.256;2023-10-08T08:04:11;59.80;52.80;43.80
57037;PMS5003;59942;49.304;8.256;2023-10-08T08:06:48;61.00;54.00;44.60
57037;PMS5003;59942;49.304;8.256;2023-10-08T08:09:19;67.80;56.60;46.80
57037;PMS5003;59942;49.304;8.256;2023-10-08T08:11:46;57.00;52.00;43.00
57037;PMS5003;59942;49.304;8.256;2023-10-08T08:14:14;55.40;51.20;43.00
57037;PMS5003;59942;49.304;8.256;2023-10-08T08:16:45;62.40;52.00;43.40
57037;PMS5003;59942;49.304;8.256;2023-10-08T08:19:15;57.00;52.00;43.40
57037;PMS5003;59942;49.304;8.256;2023-10-08T08:21:45;60.60;52.00;44.60
57037;PMS5003;59942;49.304;8.256;2023-10-08T08:24:14;63.80;55.00;46.00
57037;PMS5003;59942;49.304;8.256;2023-10-08T08:26:55;55.40;51.20;43.00
57037;PMS5003;59942;49.304;8.256;2023-10-08T08:29:34;56.20;51.60;43.00
57037;PMS5003;59942;49.304;8.256;2023-10-08T08:32:11;59.80;53.40;45.00
57037;PMS5003;59942;49.304;8.256;2023-10-08T08:34:42;58.00;52.00;45.00
57037;PMS5003;59942;49.304;8.256;2023-10-08T08:37:11;60.00;54.00;45.00
57037;PMS5003;59942;49.304;8.256;2023-10-08T08:39:38;58.00;52.00;44.20
57037;PMS5003;59942;49.304;8.256;2023-10-08T08:42:05;80.80;66.40;55.80
57037;PMS5003;59942;49.304;8.256;2023-10-08T08:44:35;58.00;52.00;43.00
57037;PMS5003;59942;49.304;8.256;2023-10-08T08:47:12;57.00;51.00;43.00
57037;PMS5003;59942;49.304;8.256;2023-10-08T08:49:47;60.20;54.00;45.20
57037;PMS5003;59942;49.304;8.256;2023-10-08T08:52:14;61.40;52.00;43.40
57037;PMS5003;59942;49.304;8.256;2023-10-08T08:54:41;59.60;52.00;43.00
57037;PMS5003;59942;49.304;8.256;2023-10-08T08:57:11;60.00;52.00;43.00
57037;PMS5003;59942;49.304;8.256;2023-10-08T08:59:43;57.60;52.00;43.00
57037;PMS5003;59942;49.304;8.256;2023-10-08T09:02:16;58.40;52.40;43.00
57037;PMS5003;59942;49.304;8.256;2023-10-08T09:04:44;64.00;54.60;46.00
57037;PMS5003;59942;49.304;8.256;2023-10-08T09:07:13;61.00;54.00;45.80
57037;PMS5003;59942;49.304;8.256;2023-10-08T09:09:40;64.80;52.80;45.20
57037;PMS5003;59942;49.304;8.256;2023-10-08T09:12:07;61.00;52.00;43.00
57037;PMS5003;59942;49.304;8.256;2023-10-08T09:14:37;57.20;52.00;43.40
57037;PMS5003;59942;49.304;8.256;2023-10-08T09:17:05;66.60;55.40;46.00
57037;PMS5003;59942;49.304;8.256;2023-10-08T09:19:38;57.50;52.00;44.00
57037;PMS5003;59942;49.304;8.256;2023-10-08T09:22:06;63.60;52.00;43.80
57037;PMS5003;59942;49.304;8.256;2023-10-08T09:24:34;60.20;52.00;45.00
57037;PMS5003;59942;49.304;8.256;2023-10-08T09:27:03;60.25;52.00;45.00
57037;PMS5003;59942;49.304;8.256;2023-10-08T09:29:34;59.80;52.80;45.00
57037;PMS5003;59942;49.304;8.256;2023-10-08T09:32:08;62.00;54.50;46.00
57037;PMS5003;59942;49.304;8.256;2023-10-08T09:34:36;64.80;54.40;46.00
57037;PMS5003;59942;49.304;8.256;2023-10-08T09:37:02;61.60;54.80;45.60
57037;PMS5003;59942;49.304;8.256;2023-10-08T09:39:30;62.50;54.75;46.00
57037;PMS5003;59942;49.304;8.256;2023-10-08T09:42:01;62.20;54.00;45.00
57037;PMS5003;59942;49.304;8.256;2023-10-08T09:44:32;59.40;53.20;45.00
57037;PMS5003;59942;49.304;8.256;2023-10-08T09:47:03;63.00;54.00;46.00
57037;PMS5003;59942;49.304;8.256;2023-10-08T09:49:41;63.50;55.00;46.00
57037;PMS5003;59942;49.304;8.256;2023-10-08T09:52:28;61.40;52.40;44.20
57037;PMS5003;59942;49.304;8.256;2023-10-08T09:55:25;58.50;52.50;45.00
57037;PMS5003;59942;49.304;8.256;2023-10-08T09:57:53;64.75;55.75;46.00
57037;PMS5003;59942;49.304;8.256;2023-10-08T10:00:21;62.50;54.75;46.00
57037;PMS5003;59942;49.304;8.256;2023-10-08T10:02:58;57.00;52.00;43.00
57037;PMS5003;59942;49.304;8.256;2023-10-08T10:05:29;55.00;50.00;42.50
57037;PMS5003;59942;49.304;8.256;2023-10-08T10:07:58;67.80;58.40;48.00
57037;PMS5003;59942;49.304;8.256;2023-10-08T10:10:28;62.20;54.00;45.80
57037;PMS5003;59942;49.304;8.256;2023-10-08T10:13:02;63.20;55.40;46.00
57037;PMS5003;59942;49.304;8.256;2023-10-08T10:15:38;67.60;58.00;47.40
57037;PMS5003;59942;49.304;8.256;2023-10-08T10:18:15;58.00;52.00;45.00
57037;PMS5003;59942;49.304;8.256;2023-10-08T10:23:34;63.80;54.00;45.00
57037;PMS5003;59942;49.304;8.256;2023-10-08T10:26:03;61.40;54.00;46.00
57037;PMS5003;59942;49.304;8.256;2023-10-08T10:28:30;66.00;57.00;48.00
57037;PMS5003;59942;49.304;8.256;2023-10-08T10:30:56;66.50;56.00;46.00
57037;PMS5003;59942;49.304;8.256;2023-10-08T10:33:30;67.00;57.20;48.00
57037;PMS5003;59942;49.304;8.256;2023-10-08T10:36:00;61.00;54.00;45.50
57037;PMS5003;59942;49.304;8.256;2023-10-08T10:38:27;63.20;54.00;46.00
57037;PMS5003;59942;49.304;8.256;2023-10-08T10:40:55;64.40;55.40;46.00
57037;PMS5003;59942;49.304;8.256;2023-10-08T10:43:25;64.00;55.00;46.00
57037;PMS5003;59942;49.304;8.256;2023-10-08T10:45:59;64.25;54.75;46.00
57037;PMS5003;59942;49.304;8.256;2023-10-08T10:48:46;63.80;55.80;46.40
57037;PMS5003;59942;49.304;8.256;2023-10-08T10:51:23;63.20;55.40;46.00
57037;PMS5003;59942;49.304;8.256;2023-10-08T10:53:50;63.00;55.00;46.00
57037;PMS5003;59942;49.304;8.256;2023-10-08T10:56:36;63.25;54.00;46.00
57037;PMS5003;59942;49.304;8.256;2023-10-08T10:59:11;63.80;55.80;46.40
57037;PMS5003;59942;49.304;8.256;2023-10-08T11:01:54;61.00;54.00;46.00
57037;PMS5003;59942;49.304;8.256;2023-10-08T11:04:33;64.50;54.50;46.00
57037;PMS5003;59942;49.304;8.256;2023-10-08T11:07:17;68.80;59.40;49.00
57037;PMS5003;59942;49.304;8.256;2023-10-08T11:09:49;66.20;57.80;47.60
57037;PMS5003;59942;49.304;8.256;2023-10-08T11:12:18;66.50;56.00;46.00
57037;PMS5003;59942;49.304;8.256;2023-10-08T11:14:49;66.00;55.00;46.00
57037;PMS5003;59942;49.304;8.256;2023-10-08T11:17:23;63.75;56.50;46.00
57037;PMS5003;59942;49.304;8.256;2023-10-08T11:19:51;59.00;53.20;44.60
57037;PMS5003;59942;49.304;8.256;2023-10-08T11:22:18;59.00;52.00;43.00
57037;PMS5003;59942;49.304;8.256;2023-10-08T11:24:48;59.25;51.50;43.00
57037;PMS5003;59942;49.304;8.256;2023-10-08T11:27:20;66.00;57.40;47.80
57037;PMS5003;59942;49.304;8.256;2023-10-08T11:29:59;67.00;57.00;46.00
57037;PMS5003;59942;49.304;8.256;2023-10-08T11:32:27;67.00;57.25;48.00
57037;PMS5003;59942;49.304;8.256;2023-10-08T11:34:57;65.50;56.00;46.00
57037;PMS5003;59942;49.304;8.256;2023-10-08T11:37:27;67.00;58.00;48.00
57037;PMS5003;59942;49.304;8.256;2023-10-08T11:40:02;69.75;58.00;49.00
57037;PMS5003;59942;49.304;8.256;2023-10-08T11:42:44;78.00;64.80;53.40
57037;PMS5003;59942;49.304;8.256;2023-10-08T11:45:10;72.00;62.00;50.60
57037;PMS5003;59942;49.304;8.256;2023-10-08T11:47:50;68.00;58.00;48.25
57037;PMS5003;59942;49.304;8.256;2023-10-08T11:50:29;66.00;57.00;48.00
57037;PMS5003;59942;49.304;8.256;2023-10-08T11:53:02;67.00;57.00;48.00
57037;PMS5003;59942;49.304;8.256;2023-10-08T11:55:30;67.00;58.00;48.00
57037;PMS5003;59942;49.304;8.256;2023-10-08T11:58:03;67.00;58.00;48.00
57037;PMS5003;59942;49.304;8.256;2023-10-08T12:00:37;65.00;57.00;47.00
57037;PMS5003;59942;49.304;8.256;2023-10-08T12:03:13;68.00;58.00;48.00
57037;PMS5003;59942;49.304;8.256;2023-10-08T12:05:47;67.50;58.00;48.00
57037;PMS5003;59942;49.304;8.256;2023-10-08T12:08:17;66.50;57.50;48.00
57037;PMS5003;59942;49.304;8.256;2023-10-08T12:10:46;67.00;58.00;48.00
57037;PMS5003;59942;49.304;8.256;2023-10-08T12:13:14;69.00;58.50;48.75
57037;PMS5003;59942;49.304;8.256;2023-10-08T12:15:45;68.75;58.00;48.00
57037;PMS5003;59942;49.304;8.256;2023-10-08T12:18:13;67.50;58.50;48.75
57037;PMS5003;59942;49.304;8.256;2023-10-08T12:20:53;69.00;60.00;49.00
57037;PMS5003;59942;49.304;8.256;2023-10-08T12:23:20;70.50;60.00;49.00
57037;PMS5003;59942;49.304;8.256;2023-10-08T12:25:53;67.50;58.00;48.50
57037;PMS5003;59942;49.304;8.256;2023-10-08T12:28:23;67.00;58.00;49.00
57037;PMS5003;59942;49.304;8.256;2023-10-08T12:30:50;69.50;60.00;49.00
57037;PMS5003;59942;49.304;8.256;2023-10-08T12:33:19;69.50;59.00;49.00
57037;PMS5003;59942;49.304;8.256;2023-10-08T12:35:46;69.50;60.00;49.00
57037;PMS5003;59942;49.304;8.256;2023-10-08T12:38:13;70.00;58.00;49.00
57037;PMS5003;59942;49.304;8.256;2023-10-08T12:40:40;70.00;60.00;49.00
57037;PMS5003;59942;49.304;8.256;2023-10-08T12:43:23;70.50;60.25;49.50
57037;PMS5003;59942;49.304;8.256;2023-10-08T12:45:53;70.00;60.50;49.00
57037;PMS5003;59942;49.304;8.256;2023-10-08T12:48:23;72.00;60.50;49.00
57037;PMS5003;59942;49.304;8.256;2023-10-08T12:50:54;78.20;66.40;55.40
57037;PMS5003;59942;49.304;8.256;2023-10-08T12:53:27;69.00;59.50;49.00
57037;PMS5003;59942;49.304;8.256;2023-10-08T12:56:06;72.50;61.00;51.00
57037;PMS5003;59942;49.304;8.256;2023-10-08T12:58:41;72.00;61.00;51.00
57037;PMS5003;59942;49.304;8.256;2023-10-08T13:01:15;70.00;60.50;50.00
57037;PMS5003;59942;49.304;8.256;2023-10-08T13:03:44;70.00;60.00;49.00
57037;PMS5003;59942;49.304;8.256;2023-10-08T13:06:16;70.00;60.00;49.00
57037;PMS5003;59942;49.304;8.256;2023-10-08T13:08:55;72.20;62.20;51.40
57037;PMS5003;59942;49.304;8.256;2023-10-08T13:11:23;70.00;60.00;49.00
57037;PMS5003;59942;49.304;8.256;2023-10-08T13:13:50;74.00;61.20;50.80
57037;PMS5003;59942;49.304;8.256;2023-10-08T13:16:18;71.25;60.50;50.00
57037;PMS5003;59942;49.304;8.256;2023-10-08T13:18:47;68.25;59.00;49.00
57037;PMS5003;59942;49.304;8.256;2023-10-08T13:21:15;70.00;59.00;49.00
57037;PMS5003;59942;49.304;8.256;2023-10-08T13:23:42;69.25;60.00;49.00
57037;PMS5003;59942;49.304;8.256;2023-10-08T13:26:08;69.50;60.00;49.00
57037;PMS5003;59942;49.304;8.256;2023-10-08T13:28:35;72.50;61.00;51.00
57037;PMS5003;59942;49.304;8.256;2023-10-08T13:31:03;73.00;61.00;51.00
57037;PMS5003;59942;49.304;8.256;2023-10-08T13:33:39;72.00;60.25;49.50
57037;PMS5003;59942;49.304;8.256;2023-10-08T13:36:09;70.00;59.00;49.00
57037;PMS5003;59942;49.304;8.256;2023-10-08T13:38:44;67.00;58.00;48.00
57037;PMS5003;59942;49.304;8.256;2023-10-08T13:41:14;69.50;60.00;49.00
57037;PMS5003;59942;49.304;8.256;2023-10-08T13:43:41;69.50;60.00;49.00
57037;PMS5003;59942;49.304;8.256;2023-10-08T13:46:15;70.00;60.25;49.50
57037;PMS5003;59942;49.304;8.256;2023-10-08T13:48:44;69.50;60.00;49.00
57037;PMS5003;59942;49.304;8.256;2023-10-08T13:51:15;72.00;61.00;51.00
57037;PMS5003;59942;49.304;8.256;2023-10-08T13:53:53;68.25;59.00;49.00
57037;PMS5003;59942;49.304;8.256;2023-10-08T13:56:26;70.00;59.00;49.00
57037;PMS5003;59942;49.304;8.256;2023-10-08T13:58:56;69.50;60.00;49.00
57037;PMS5003;59942;49.304;8.256;2023-10-08T14:01:33;73.00;61.00;51.00
57037;PMS5003;59942;49.304;8.256;2023-10-08T14:04:01;73.00;61.00;51.00
57037;PMS5003;59942;49.304;8.256;2023-10-08T14:06:36;70.00;59.50;49.00
57037;PMS5003;59942;49.304;8.256;2023-10-08T14:09:07;72.00;60.50;49.00
57037;PMS5003;59942;49.304;8.256;2023-10-08T14:11:38;72.50;60.00;49.00
57037;PMS5003;59942;49.304;8.256;2023-10-08T14:14:05;67.50;58.50;49.00
57037;PMS5003;59942;49.304;8.256;2023-10-08T14:16:40;70.00;60.25;49.50
57037;PMS5003;59942;49.304;8.256;2023-10-08T14:19:13;67.00;58.00;49.00
57037;PMS5003;59942;49.304;8.256;2023-10-08T14:21:41;69.75;60.00;49.00